Terminal Aerodrome Forecast
Issued by NWS

Current Version | Previous Version | Text Only | Print | Product List | Glossary Off
Versions: 1 2 3 4 5 6 7 8 9 10 11 12 13 14 15 16 17 18 19 20 21 22

000
FTUS41 KPBZ 311137
TAFHLG
TAF
KHLG 311137Z 3112/0112 17007KT P6SM VCSH BKN050
     FM311700 22008KT 6SM -SHRA VCTS SCT035CB BKN050
     FM010300 28004KT 2SM -SHRA BR BKN007=

USA.gov is the U.S. government's official web portal to all federal, state and local government web resources and services.